Time;durP1;ratioP1;P1;durP2;ratioP2;P2;SDS_P1;SDS_P2;PMS_P1;PMS_P2;Temp;Humidity;BMP_temperature;BMP_pressure;BME280_temperature;BME280_humidity;BME280_pressure;Samples;Min_cycle;Max_cycle;Signal;HPM_P1;HPM_P2
2022/05/11 00:01:57;;;;;;;;;4.00;4.00;;;;;18.43;49.85;99706.66;5037225;28;8970;-64
2022/05/11 00:04:25;;;;;;;;;7.00;6.80;;;;;18.39;50.14;99709.91;5037024;28;8854;-63
2022/05/11 00:06:53;;;;;;;;;6.00;5.60;;;;;18.35;50.55;99701.31;5037361;28;8998;-63
2022/05/11 00:09:20;;;;;;;;;4.40;3.60;;;;;18.29;50.17;99693.91;5037221;28;8847;-63
2022/05/11 00:11:48;;;;;;;;;6.60;6.60;;;;;18.26;50.83;99696.97;5038194;28;8841;-64
2022/05/11 00:14:16;;;;;;;;;6.75;5.25;;;;;18.22;50.64;99686.72;5038612;28;9533;-64
2022/05/11 00:16:44;;;;;;;;;6.20;4.60;;;;;18.16;50.72;99690.97;5038760;28;8902;-64
2022/05/11 00:19:12;;;;;;;;;7.00;7.00;;;;;18.11;50.86;99690.63;5050331;28;8849;-63
2022/05/11 00:21:39;;;;;;;;;7.75;6.75;;;;;18.05;51.25;99691.34;5057982;28;8862;-63
2022/05/11 00:24:07;;;;;;;;;4.40;4.40;;;;;18.00;50.85;99684.78;5057105;28;8858;-64
2022/05/11 00:26:35;;;;;;;;;6.00;6.00;;;;;17.95;51.12;99679.94;5056966;28;8826;-64
2022/05/11 00:29:04;;;;;;;;;6.00;6.00;;;;;17.91;51.38;99683.16;5047357;28;8836;-63
2022/05/11 00:31:31;;;;;;;;;7.00;7.00;;;;;17.84;51.35;99674.91;5036684;28;8816;-63
2022/05/11 00:33:59;;;;;;;;;7.50;7.50;;;;;17.79;51.52;99674.63;5036858;28;8836;-64
2022/05/11 00:36:27;;;;;;;;;9.00;7.00;;;;;17.76;51.18;99674.94;5036842;28;8884;-63
2022/05/11 00:38:55;;;;;;;;;5.00;5.00;;;;;17.73;51.96;99669.91;5036765;28;8848;-64
2022/05/11 00:41:23;;;;;;;;;7.25;7.25;;;;;17.69;51.52;99663.19;5037928;28;8847;-63
2022/05/11 00:43:51;;;;;;;;;6.25;6.25;;;;;17.66;51.84;99660.84;5038397;28;8840;-64
2022/05/11 00:46:18;;;;;;;;;3.80;3.80;;;;;17.64;51.55;99665.59;5036838;28;8856;-63
2022/05/11 00:51:32;;;;;;;;;7.25;6.25;;;;;17.60;51.93;99650.75;5036316;28;8856;-64
2022/05/11 00:53:59;;;;;;;;;7.50;7.00;;;;;17.57;52.28;99656.50;5036363;28;8833;-65
2022/05/11 00:56:27;;;;;;;;;3.00;3.00;;;;;17.51;52.21;99665.28;5036295;28;8866;-63
2022/05/11 00:58:57;;;;;;;;;7.00;7.00;;;;;17.49;52.46;99653.84;5042717;28;8836;-63
2022/05/11 01:01:24;;;;;;;;;7.00;6.25;;;;;17.48;51.85;99641.38;5056401;28;8833;-65
2022/05/11 01:03:52;;;;;;;;;7.00;7.00;;;;;17.47;52.06;99642.38;5056484;28;8884;-63
2022/05/11 01:06:20;;;;;;;;;6.25;6.00;;;;;17.47;51.97;99647.78;5056711;28;8842;-63
2022/05/11 01:08:48;;;;;;;;;5.50;5.00;;;;;17.47;52.42;99645.06;5057448;28;8830;-63
2022/05/11 01:11:16;;;;;;;;;6.75;6.50;;;;;17.47;51.96;99630.78;5057201;28;8849;-63
2022/05/11 01:13:43;;;;;;;;;8.00;6.80;;;;;17.45;51.66;99625.56;5055826;28;8846;-63
2022/05/11 01:16:11;;;;;;;;;6.75;6.75;;;;;17.45;52.05;99624.75;5055711;28;8850;-63
2022/05/11 01:18:39;;;;;;;;;7.50;7.50;;;;;17.43;52.62;99621.38;5056269;28;8834;-63
2022/05/11 01:21:07;;;;;;;;;3.00;3.00;;;;;17.41;52.49;99620.72;5055854;28;8870;-63
2022/05/11 01:23:34;;;;;;;;;6.00;6.00;;;;;17.40;52.09;99614.47;5055850;28;8858;-64
2022/05/11 01:26:02;;;;;;;;;6.00;6.00;;;;;17.39;52.43;99615.47;5055530;28;8860;-64
2022/05/11 01:28:30;;;;;;;;;6.00;6.00;;;;;17.37;52.12;99606.75;5051951;28;8844;-63
2022/05/11 01:30:58;;;;;;;;;7.00;7.00;;;;;17.36;52.24;99615.84;5035556;28;8975;-64
2022/05/11 01:33:26;;;;;;;;;6.50;6.50;;;;;17.35;52.58;99602.50;5036596;28;8829;-64
2022/05/11 01:35:54;;;;;;;;;6.75;6.50;;;;;17.33;52.42;99610.75;5035870;28;8870;-64
2022/05/11 01:38:22;;;;;;;;;6.75;6.75;;;;;17.31;52.80;99612.78;5037455;28;8849;-63
2022/05/11 01:40:49;;;;;;;;;6.00;6.00;;;;;17.30;53.00;99610.28;5036552;28;8841;-64
2022/05/11 01:43:17;;;;;;;;;8.00;7.00;;;;;17.29;52.64;99608.59;5035879;28;8866;-66
2022/05/11 01:45:45;;;;;;;;;6.00;6.00;;;;;17.26;53.07;99604.41;5035317;28;8832;-64
2022/05/11 01:48:13;;;;;;;;;7.00;7.00;;;;;17.27;52.70;99598.00;5035484;28;8856;-64
2022/05/11 01:50:41;;;;;;;;;6.75;6.75;;;;;17.26;52.59;99595.47;5035465;28;8868;-64
2022/05/11 01:53:08;;;;;;;;;6.50;4.50;;;;;17.26;52.83;99593.66;5035084;28;8832;-63
2022/05/11 01:55:36;;;;;;;;;6.00;6.00;;;;;17.28;52.57;99582.69;5035187;28;8841;-64
2022/05/11 01:58:06;;;;;;;;;6.00;6.00;;;;;17.29;52.93;99581.66;5038722;28;8844;-63
2022/05/11 02:00:34;;;;;;;;;4.50;4.00;;;;;17.29;52.52;99576.28;5056693;28;8846;-63
2022/05/11 02:03:02;;;;;;;;;3.00;3.00;;;;;17.29;52.76;99566.38;5056581;28;8826;-63
2022/05/11 02:08:17;;;;;;;;;6.25;6.25;;;;;17.28;52.57;99548.53;5054465;28;8846;-63
2022/05/11 02:10:45;;;;;;;;;6.00;6.00;;;;;17.28;52.24;99553.94;5056074;28;8856;-63
2022/05/11 02:13:12;;;;;;;;;2.50;2.50;;;;;17.26;52.50;99555.97;5056995;28;8842;-63
2022/05/11 02:15:40;;;;;;;;;4.00;3.50;;;;;17.23;52.77;99547.41;5056586;28;8830;-63
2022/05/11 02:18:08;;;;;;;;;6.00;6.00;;;;;17.18;52.65;99547.91;5056288;28;8842;-64
2022/05/11 02:20:35;;;;;;;;;6.00;4.00;;;;;17.12;53.23;99547.75;5056553;28;8864;-64
2022/05/11 02:23:03;;;;;;;;;5.00;5.00;;;;;17.07;53.21;99550.97;5056536;28;8874;-64
2022/05/11 02:25:31;;;;;;;;;9.00;6.25;;;;;17.02;53.22;99542.56;5055996;28;9618;-67
2022/05/11 02:28:00;;;;;;;;;6.00;5.50;;;;;16.98;53.61;99546.63;5054861;28;9507;-64
2022/05/11 02:30:28;;;;;;;;;9.00;6.50;;;;;16.95;53.43;99546.13;5035802;28;8816;-64
2022/05/11 02:32:55;;;;;;;;;7.00;7.00;;;;;16.92;53.66;99541.06;5036067;28;8848;-64
2022/05/11 02:35:23;;;;;;;;;6.00;6.00;;;;;16.86;53.71;99534.53;5036216;28;8832;-64
2022/05/11 02:37:51;;;;;;;;;7.00;7.00;;;;;16.83;53.64;99531.34;5036058;28;8843;-63
2022/05/11 02:40:19;;;;;;;;;5.00;5.00;;;;;16.79;54.05;99530.84;5036091;28;8848;-63
2022/05/11 02:42:47;;;;;;;;;8.25;6.75;;;;;16.76;53.78;99524.97;5036004;28;8878;-64
2022/05/11 02:45:15;;;;;;;;;10.50;9.75;;;;;16.73;53.39;99531.56;5035731;28;8872;-64
2022/05/11 02:47:43;;;;;;;;;7.00;7.00;;;;;16.68;54.08;99528.53;5036033;28;8848;-63
2022/05/11 02:50:11;;;;;;;;;6.75;6.75;;;;;16.64;54.04;99526.34;5035704;28;8851;-63
2022/05/11 02:52:38;;;;;;;;;10.00;10.00;;;;;16.60;54.41;99520.47;5035710;28;8858;-64
2022/05/11 02:55:06;;;;;;;;;7.00;6.25;;;;;16.58;54.27;99527.88;5035799;28;8850;-63
2022/05/11 02:57:34;;;;;;;;;10.00;9.50;;;;;16.55;54.13;99522.00;5036154;28;8856;-63
2022/05/11 03:00:03;;;;;;;;;9.25;8.00;;;;;16.55;54.22;99524.69;5053342;28;8856;-63
2022/05/11 03:02:30;;;;;;;;;3.75;2.00;;;;;16.53;53.94;99524.00;5042017;28;8831;-64
2022/05/11 03:04:58;;;;;;;;;9.00;7.00;;;;;16.50;54.70;99518.97;5035801;28;8934;-64
2022/05/11 03:07:26;;;;;;;;;11.00;10.00;;;;;16.50;54.35;99516.28;5035538;28;8975;-64
2022/05/11 03:09:54;;;;;;;;;13.00;9.50;;;;;16.51;54.02;99523.34;5035711;28;8930;-64
2022/05/11 03:12:22;;;;;;;;;4.00;3.00;;;;;16.50;54.35;99514.41;5035968;28;8975;-64
2022/05/11 03:14:50;;;;;;;;;9.50;9.00;;;;;16.50;54.08;99509.03;5035666;28;8852;-65
2022/05/11 03:17:18;;;;;;;;;5.50;5.00;;;;;16.51;54.17;99508.06;5034219;28;8833;-64
2022/05/11 03:19:45;;;;;;;;;10.00;7.50;;;;;16.51;54.10;99500.00;5035644;28;8964;-63
2022/05/11 03:22:13;;;;;;;;;8.50;8.00;;;;;16.50;54.64;99508.22;5035573;28;9014;-64
2022/05/11 03:24:41;;;;;;;;;6.50;5.00;;;;;16.49;54.37;99501.19;5035693;28;9660;-65
2022/05/11 03:27:08;;;;;;;;;9.00;9.00;;;;;16.45;54.39;99499.81;5035283;28;8828;-64
2022/05/11 03:29:36;;;;;;;;;8.50;6.50;;;;;16.41;54.39;99493.94;5049037;28;8864;-64
2022/05/11 03:34:49;;;;;;;;;5.00;5.00;;;;;16.35;55.12;99499.13;5055448;28;8996;-67
2022/05/11 03:37:17;;;;;;;;;8.50;8.50;;;;;16.32;55.33;99494.94;5055365;28;8977;-64
2022/05/11 03:39:45;;;;;;;;;9.75;8.25;;;;;16.32;55.15;99494.09;5054932;28;8965;-64
2022/05/11 03:42:12;;;;;;;;;9.00;8.50;;;;;16.31;55.44;99487.88;5055300;28;8847;-63
2022/05/11 03:44:40;;;;;;;;;8.50;8.50;;;;;16.31;55.46;99504.00;5055406;28;8834;-64
2022/05/11 03:47:08;;;;;;;;;9.25;8.50;;;;;16.31;54.93;99487.88;5055208;28;8977;-64
2022/05/11 03:49:36;;;;;;;;;8.00;7.50;;;;;16.31;55.18;99493.25;5055384;28;8834;-64
2022/05/11 03:52:04;;;;;;;;;11.75;11.50;;;;;16.31;55.16;99487.03;5055076;28;8988;-65
2022/05/11 03:54:36;;;;;;;;;9.50;9.00;;;;;16.32;55.04;99492.25;5055209;28;8835;-64
2022/05/11 03:57:04;;;;;;;;;7.00;7.00;;;;;16.35;55.78;99491.91;5055070;28;8848;-64
2022/05/11 03:59:32;;;;;;;;;9.00;9.00;;;;;16.38;55.04;99481.88;5039247;28;8837;-64
2022/05/11 04:02:00;;;;;;;;;10.00;9.50;;;;;16.38;55.15;99484.56;5035322;28;8852;-64
2022/05/11 04:04:28;;;;;;;;;9.00;9.00;;;;;16.38;54.74;99473.81;5035222;28;8887;-65
2022/05/11 04:06:56;;;;;;;;;7.50;6.50;;;;;16.38;55.09;99471.13;5037007;28;8858;-64
2022/05/11 04:09:23;;;;;;;;;9.25;7.50;;;;;16.34;55.19;99466.03;5036248;28;8918;-64
2022/05/11 04:11:51;;;;;;;;;5.00;5.00;;;;;16.29;55.30;99459.50;5036857;28;8848;-64
2022/05/11 04:14:19;;;;;;;;;7.00;7.00;;;;;16.24;55.21;99465.38;5036629;28;8844;-64
2022/05/11 04:16:47;;;;;;;;;4.50;3.75;;;;;16.22;55.10;99460.34;5036717;28;8857;-64
2022/05/11 04:19:15;;;;;;;;;8.50;7.00;;;;;16.19;56.14;99466.91;5036724;28;8848;-64
2022/05/11 04:21:43;;;;;;;;;10.50;10.00;;;;;16.17;55.49;99462.72;5037932;28;8865;-64
2022/05/11 04:24:10;;;;;;;;;8.00;6.50;;;;;16.14;55.47;99461.19;5038368;28;8943;-64
2022/05/11 04:26:38;;;;;;;;;7.00;6.75;;;;;16.14;55.49;99460.38;5038326;28;8849;-64
2022/05/11 04:29:06;;;;;;;;;7.75;7.25;;;;;16.13;55.58;99462.19;5050010;28;8853;-64
2022/05/11 04:31:34;;;;;;;;;6.00;6.00;;;;;16.15;55.19;99462.88;5058032;28;8846;-65
2022/05/11 04:34:02;;;;;;;;;9.00;9.00;;;;;16.19;55.49;99462.34;5058158;28;8912;-64
2022/05/11 04:36:30;;;;;;;;;5.50;5.50;;;;;16.25;55.63;99464.38;5042192;28;8829;-64
2022/05/11 04:38:58;;;;;;;;;7.00;7.00;;;;;16.27;55.43;99456.97;5037878;28;8846;-66
2022/05/11 04:41:31;;;;;;;;;10.50;8.50;;;;;16.30;55.46;99462.03;5037023;28;8872;-64
2022/05/11 04:43:58;;;;;;;;;9.00;8.00;;;;;16.35;55.18;99459.66;5037132;28;8840;-64
2022/05/11 04:46:26;;;;;;;;;10.50;9.00;;;;;16.39;55.08;99457.50;5036593;28;8860;-64
2022/05/11 04:49:16;;;;;;;;;7.00;6.00;;;;;16.43;55.07;99453.47;5036968;28;9498;-65
2022/05/11 04:51:42;;;;;;;;;6.50;5.00;;;;;16.46;54.91;99453.97;5056667;28;8838;-67
2022/05/11 04:54:11;;;;;;;;;10.50;9.25;;;;;16.49;55.38;99444.72;5056977;28;8834;-64
2022/05/11 04:56:39;;;;;;;;;6.75;6.25;;;;;16.54;54.83;99440.50;5057579;28;8954;-65
2022/05/11 04:59:08;;;;;;;;;7.25;5.50;;;;;16.63;55.02;99438.66;5057231;28;8992;-64
2022/05/11 05:01:35;;;;;;;;;8.00;8.00;;;;;16.73;54.82;99450.03;5056868;28;8842;-65
2022/05/11 05:04:03;;;;;;;;;6.50;6.50;;;;;16.82;54.60;99447.16;5055387;28;8915;-64
2022/05/11 05:06:32;;;;;;;;;12.50;11.00;;;;;16.91;54.14;99437.19;5056353;28;9001;-64
2022/05/11 05:09:00;;;;;;;;;10.25;7.50;;;;;16.99;53.95;99440.69;5055654;28;8919;-64
2022/05/11 05:11:28;;;;;;;;;9.25;9.00;;;;;17.02;53.99;99431.44;5055170;28;8965;-64
2022/05/11 05:13:56;;;;;;;;;6.00;6.00;;;;;17.03;54.42;99436.66;5055744;28;8853;-65
2022/05/11 05:16:23;;;;;;;;;8.00;7.50;;;;;17.08;54.15;99446.88;5054774;28;8854;-65
2022/05/11 05:18:51;;;;;;;;;9.00;7.00;;;;;17.12;53.88;99443.66;5055841;28;9705;-64
2022/05/11 05:21:19;;;;;;;;;7.00;6.00;;;;;17.16;54.22;99436.91;5039551;28;8895;-64
2022/05/11 05:23:52;;;;;;;;;12.00;10.00;;;;;17.20;54.13;99440.06;5036781;28;8856;-65
2022/05/11 05:26:20;;;;;;;;;9.75;9.00;;;;;17.23;53.84;99435.19;5036117;28;8979;-64
2022/05/11 05:31:33;;;;;;;;;10.50;9.50;;;;;17.32;53.98;99431.41;5036156;28;8982;-64
2022/05/11 05:34:01;;;;;;;;;13.00;10.00;;;;;17.42;53.85;99434.78;5036355;28;8848;-64
2022/05/11 05:36:29;;;;;;;;;10.50;9.00;;;;;17.50;53.73;99432.03;5034662;28;8836;-64
2022/05/11 05:38:58;;;;;;;;;13.25;12.50;;;;;17.57;53.60;99430.31;5035178;28;8860;-64
2022/05/11 05:41:25;;;;;;;;;14.00;14.00;;;;;17.61;53.14;99434.28;5034829;28;8858;-64
2022/05/11 05:43:53;;;;;;;;;8.50;8.50;;;;;17.60;53.37;99431.81;5034842;28;8986;-64
2022/05/11 05:46:21;;;;;;;;;9.50;9.00;;;;;17.60;53.92;99435.31;5034602;28;8848;-64
2022/05/11 05:48:49;;;;;;;;;6.50;6.50;;;;;17.62;53.94;99435.16;5035021;28;8821;-64
2022/05/11 05:51:17;;;;;;;;;10.00;9.00;;;;;17.63;53.98;99437.66;5050406;28;8854;-64
2022/05/11 05:53:44;;;;;;;;;12.00;11.25;;;;;17.71;53.47;99442.16;5054001;28;8972;-67
2022/05/11 05:56:12;;;;;;;;;12.00;12.00;;;;;17.79;53.37;99445.63;5053588;28;8880;-64
2022/05/11 05:58:40;;;;;;;;;9.25;9.25;;;;;17.90;53.63;99437.13;5053060;28;8834;-64
2022/05/11 06:01:08;;;;;;;;;12.00;10.00;;;;;18.01;53.58;99433.16;5053127;28;8978;-64
2022/05/11 06:03:36;;;;;;;;;11.50;8.50;;;;;18.11;53.49;99439.97;5052608;28;8853;-65
2022/05/11 06:06:08;;;;;;;;;10.50;10.00;;;;;18.21;52.91;99429.75;5053270;28;8857;-65
2022/05/11 06:08:36;;;;;;;;;15.25;13.75;;;;;18.29;53.03;99432.38;5052872;28;8972;-64
2022/05/11 06:11:04;;;;;;;;;10.80;9.80;;;;;18.35;53.08;99431.69;5053035;28;8868;-64
2022/05/11 06:13:32;;;;;;;;;12.25;12.25;;;;;18.43;53.11;99428.09;5053772;28;8981;-64
2022/05/11 06:16:00;;;;;;;;;12.00;11.50;;;;;18.44;52.60;99430.56;5053419;28;8860;-66
2022/05/11 06:18:28;;;;;;;;;10.25;9.00;;;;;18.49;53.07;99425.47;5054775;28;8865;-65
2022/05/11 06:20:56;;;;;;;;;15.50;12.50;;;;;18.60;52.81;99426.88;5042667;28;8868;-64
2022/05/11 06:23:24;;;;;;;;;13.00;13.00;;;;;18.74;52.45;99418.78;5034927;28;8953;-64
2022/05/11 06:25:51;;;;;;;;;13.00;12.60;;;;;18.88;51.99;99409.03;5034874;28;8836;-64
2022/05/11 06:28:23;;;;;;;;;13.75;13.75;;;;;19.01;51.76;99399.22;5035236;28;8858;-65
2022/05/11 06:31:10;;;;;;;;;13.50;12.75;;;;;19.18;51.74;99403.38;5033887;28;8987;-64
2022/05/11 06:33:41;;;;;;;;;16.00;14.75;;;;;19.33;51.24;99406.06;5033537;28;8871;-64
2022/05/11 06:36:09;;;;;;;;;12.50;12.50;;;;;19.46;51.46;99398.09;5033096;28;8978;-64
2022/05/11 06:38:37;;;;;;;;;16.20;14.40;;;;;19.61;51.13;99399.75;5032783;28;8848;-65
2022/05/11 06:41:05;;;;;;;;;11.20;10.00;;;;;19.76;50.43;99394.25;5032105;28;9819;-65
2022/05/11 06:43:33;;;;;;;;;14.00;13.40;;;;;19.92;50.95;99389.44;5032119;28;8849;-65
2022/05/11 06:46:01;;;;;;;;;13.80;13.40;;;;;20.11;50.31;99396.88;5032670;28;8866;-64
2022/05/11 06:48:28;;;;;;;;;13.80;13.00;;;;;20.27;50.00;99385.81;5032823;28;8855;-65
2022/05/11 06:50:56;;;;;;;;;13.80;13.60;;;;;20.44;50.28;99383.63;5043293;28;8989;-64
2022/05/11 06:53:24;;;;;;;;;12.40;10.60;;;;;20.60;50.07;99386.00;5051733;28;8984;-64
2022/05/11 07:01:24;;;;;;;;;14.60;12.40;;;;;21.10;49.29;99383.81;5052596;28;8838;-65
2022/05/11 07:03:51;;;;;;;;;12.60;12.60;;;;;21.23;48.80;99386.53;5053271;28;8896;-64
2022/05/11 07:06:19;;;;;;;;;11.00;10.80;;;;;21.35;48.76;99387.63;5052526;28;8992;-65
2022/05/11 07:08:47;;;;;;;;;14.20;12.40;;;;;21.45;48.55;99390.78;5052599;28;8856;-65
2022/05/11 07:14:03;;;;;;;;;13.80;13.80;;;;;21.60;48.72;99384.16;5053447;28;8869;-64
2022/05/11 07:16:30;;;;;;;;;15.00;14.00;;;;;21.66;48.69;99380.66;5049164;28;8821;-66
2022/05/11 07:19:00;;;;;;;;;13.60;13.60;;;;;21.76;48.69;99381.09;5032747;28;8875;-65
2022/05/11 07:21:28;;;;;;;;;12.00;11.20;;;;;21.85;48.99;99379.03;5032864;28;9541;-64
2022/05/11 07:23:56;;;;;;;;;12.20;11.80;;;;;21.93;48.12;99381.53;5033287;28;8871;-65
2022/05/11 07:26:24;;;;;;;;;8.00;8.00;;;;;22.03;48.20;99384.66;5033768;28;8974;-65
2022/05/11 07:28:53;;;;;;;;;9.00;9.00;;;;;22.13;48.20;99372.34;5033875;28;8858;-65
2022/05/11 07:31:21;;;;;;;;;12.00;11.80;;;;;22.21;48.36;99374.00;5033627;28;8848;-65
2022/05/11 07:33:48;;;;;;;;;11.60;11.40;;;;;22.27;48.24;99373.16;5032601;28;8934;-64
2022/05/11 07:36:16;;;;;;;;;13.20;13.20;;;;;22.32;48.31;99378.81;5031904;28;8840;-64
2022/05/11 07:38:44;;;;;;;;;11.40;10.40;;;;;22.37;47.85;99378.97;5032510;28;8855;-65
2022/05/11 07:41:12;;;;;;;;;13.00;13.00;;;;;22.39;48.02;99377.72;5035703;28;8844;-65
2022/05/11 07:43:39;;;;;;;;;12.40;12.00;;;;;22.43;48.45;99379.03;5035497;28;8848;-65
2022/05/11 07:46:07;;;;;;;;;12.20;10.20;;;;;22.50;47.73;99373.56;5036815;28;8836;-65
2022/05/11 07:48:37;;;;;;;;;8.20;7.60;;;;;22.54;47.50;99378.38;5036839;28;8857;-65
2022/05/11 07:51:05;;;;;;;;;14.40;12.00;;;;;22.59;47.64;99375.84;5037237;28;9533;-65
2022/05/11 07:53:33;;;;;;;;;9.60;9.40;;;;;22.62;48.21;99371.91;5036915;28;8840;-65
2022/05/11 08:01:31;;;;;;;;;9.60;9.20;;;;;22.88;47.69;99377.22;5036785;28;9579;-64
2022/05/11 08:03:59;;;;;;;;;11.20;11.20;;;;;22.94;47.40;99376.38;5036833;28;8837;-66
2022/05/11 08:06:27;;;;;;;;;10.80;10.00;;;;;22.96;47.15;99371.56;5036394;28;8929;-64
2022/05/11 08:08:54;;;;;;;;;10.40;10.00;;;;;23.02;47.45;99370.72;5048700;28;8834;-64
2022/05/11 08:11:22;;;;;;;;;11.80;10.00;;;;;23.10;47.39;99367.75;5056037;28;9002;-64
2022/05/11 08:13:50;;;;;;;;;10.40;10.00;;;;;23.16;47.14;99377.78;5056505;28;8969;-64
2022/05/11 08:16:19;;;;;;;;;10.20;7.80;;;;;23.22;46.73;99371.50;5056071;28;8989;-65
2022/05/11 08:18:47;;;;;;;;;10.00;10.00;;;;;23.27;46.84;99367.06;5056092;28;8976;-64
2022/05/11 08:21:15;;;;;;;;;12.60;12.40;;;;;23.37;46.86;99372.03;5055459;28;8862;-64
2022/05/11 08:23:44;;;;;;;;;8.40;8.00;;;;;23.45;46.78;99363.63;5044170;28;8908;-65
2022/05/11 08:26:12;;;;;;;;;12.80;11.60;;;;;23.52;46.05;99361.72;5035230;28;8939;-65
2022/05/11 08:28:40;;;;;;;;;9.00;9.00;;;;;23.59;46.63;99365.22;5040906;28;9603;-64
2022/05/11 08:33:53;;;;;;;;;10.00;10.00;;;;;23.75;45.78;99376.38;5056622;28;8858;-65
2022/05/11 08:36:37;;;;;;;;;11.20;10.00;;;;;23.76;45.80;99369.06;5057142;28;8922;-64
2022/05/11 08:39:05;;;;;;;;;6.00;6.00;;;;;23.81;46.13;99364.63;5056943;28;8838;-64
2022/05/11 08:41:33;;;;;;;;;9.00;8.60;;;;;23.85;45.79;99368.59;5055923;28;8855;-64
2022/05/11 08:44:01;;;;;;;;;9.60;9.40;;;;;23.90;45.76;99368.78;5038995;28;8906;-65
2022/05/11 08:46:29;;;;;;;;;11.00;10.80;;;;;23.96;46.01;99361.66;5036402;28;8840;-64
2022/05/11 08:48:57;;;;;;;;;11.20;10.80;;;;;24.02;45.69;99356.13;5035847;28;8848;-64
2022/05/11 08:51:25;;;;;;;;;7.80;6.00;;;;;24.07;45.93;99363.63;5038855;28;8991;-64
2022/05/11 08:53:52;;;;;;;;;9.60;9.00;;;;;24.16;45.57;99362.28;5055051;28;8862;-65
2022/05/11 08:56:20;;;;;;;;;6.80;6.40;;;;;24.21;44.98;99359.75;5055642;28;8993;-65
2022/05/11 08:58:49;;;;;;;;;10.20;10.20;;;;;24.25;45.44;99366.38;5055770;28;8834;-65
2022/05/11 09:01:17;;;;;;;;;9.20;9.20;;;;;24.27;44.88;99364.31;5056197;28;9014;-65
2022/05/11 09:03:45;;;;;;;;;11.00;10.20;;;;;24.22;44.82;99356.81;5056472;28;8862;-64
2022/05/11 09:06:12;;;;;;;;;11.20;10.40;;;;;24.20;45.26;99363.53;5056253;28;8846;-65
2022/05/11 09:08:41;;;;;;;;;10.00;9.40;;;;;24.20;45.07;99367.06;5054838;28;8837;-65
2022/05/11 09:11:08;;;;;;;;;10.20;10.00;;;;;24.17;45.36;99362.06;5054316;28;8834;-64
2022/05/11 09:13:36;;;;;;;;;9.40;9.00;;;;;24.17;45.32;99367.53;5054387;28;8911;-64
2022/05/11 09:16:07;;;;;;;;;11.00;10.00;;;;;24.18;44.60;99358.28;5055570;28;8908;-64
2022/05/11 09:18:34;;;;;;;;;13.80;10.60;;;;;24.23;44.42;99372.06;5055046;28;8838;-65
2022/05/11 09:21:02;;;;;;;;;9.40;8.60;;;;;24.27;44.58;99358.84;5054993;28;8992;-64
2022/05/11 09:23:31;;;;;;;;;11.40;10.20;;;;;24.34;44.67;99348.75;5054127;28;8848;-64
2022/05/11 09:25:59;;;;;;;;;10.00;10.00;;;;;24.44;44.62;99365.38;5053823;28;8838;-65
2022/05/11 09:28:27;;;;;;;;;7.80;7.40;;;;;24.47;44.59;99354.88;5053250;28;8834;-64
2022/05/11 09:30:55;;;;;;;;;11.80;11.00;;;;;24.54;43.62;99352.06;5053871;28;8826;-64
2022/05/11 09:33:23;;;;;;;;;7.00;7.00;;;;;24.66;43.63;99353.03;5052810;28;8846;-64
2022/05/11 09:35:50;;;;;;;;;9.40;9.40;;;;;24.88;43.55;99354.25;5049968;28;8861;-64
2022/05/11 09:38:38;;;;;;;;;7.60;7.60;;;;;25.16;43.02;99359.97;5053367;28;8866;-64
2022/05/11 09:41:06;;;;;;;;;9.80;9.40;;;;;25.40;42.21;99350.88;5054002;28;9527;-64
2022/05/11 09:43:34;;;;;;;;;13.20;12.00;;;;;25.63;42.04;99352.63;5040278;28;8840;-64
2022/05/11 09:46:02;;;;;;;;;11.40;11.00;;;;;25.82;41.40;99356.13;5034646;28;8848;-64
2022/05/11 09:48:30;;;;;;;;;10.00;10.00;;;;;25.94;41.50;99348.81;5033938;28;8836;-65
2022/05/11 09:50:58;;;;;;;;;10.80;10.60;;;;;26.24;41.08;99344.94;5034271;28;8860;-65
2022/05/11 09:53:26;;;;;;;;;10.40;8.40;;;;;26.51;40.61;99337.09;5033861;28;8844;-66
2022/05/11 09:56:01;;;;;;;;;7.00;7.00;;;;;26.83;40.25;99338.38;5029838;28;8851;-69
2022/05/11 09:58:30;;;;;;;;;10.40;8.00;;;;;27.16;39.46;99336.66;5032771;28;8875;-65
2022/05/11 10:00:58;;;;;;;;;9.80;7.80;;;;;27.50;39.51;99338.44;5033849;28;8841;-64
2022/05/11 10:03:26;;;;;;;;;8.80;8.00;;;;;27.60;39.14;99335.88;5033054;28;8854;-64
2022/05/11 10:05:54;;;;;;;;;7.40;7.40;;;;;27.83;39.12;99335.78;5033358;28;8868;-64
2022/05/11 10:08:22;;;;;;;;;8.00;7.20;;;;;28.04;39.08;99321.34;5034123;28;8829;-64
2022/05/11 10:10:50;;;;;;;;;8.60;7.60;;;;;28.38;38.77;99327.66;5033458;28;8867;-64
2022/05/11 10:13:18;;;;;;;;;10.20;9.40;;;;;28.52;38.13;99329.78;5038779;28;8867;-63
2022/05/11 10:24:01;;;;;;;;;3.00;3.00;;;;;29.57;36.65;99317.44;5031355;28;8898;-64
2022/05/11 10:26:29;;;;;;;;;7.60;7.60;;;;;29.69;36.55;99303.56;5032337;28;8829;-63
2022/05/11 10:28:57;;;;;;;;;5.00;5.00;;;;;29.88;36.42;99324.88;5031938;28;8894;-64
2022/05/11 10:31:26;;;;;;;;;9.00;9.00;;;;;30.06;36.01;99310.78;5032099;28;9568;-64
2022/05/11 10:33:56;;;;;;;;;10.80;9.80;;;;;30.36;35.59;99312.94;5031770;28;8872;-64
2022/05/11 10:36:24;;;;;;;;;11.00;9.80;;;;;30.60;35.40;99313.09;5032127;28;8963;-64
2022/05/11 10:38:52;;;;;;;;;4.20;4.00;;;;;30.73;35.48;99303.59;5032110;28;8975;-65
2022/05/11 10:41:22;;;;;;;;;11.40;11.20;;;;;30.72;34.96;99293.66;5032370;28;8933;-64
2022/05/11 10:43:50;;;;;;;;;10.60;10.60;;;;;30.56;34.92;99311.13;5049717;28;9375;-65
2022/05/11 10:46:25;;;;;;;;;8.40;7.80;;;;;30.55;34.96;99306.72;5051969;28;8893;-65
2022/05/11 10:48:53;;;;;;;;;10.40;10.00;;;;;30.56;34.75;99305.63;5052922;28;8881;-65
2022/05/11 10:51:20;;;;;;;;;2.00;2.00;;;;;30.71;34.33;99291.19;5052831;28;8955;-65
2022/05/11 10:53:48;;;;;;;;;10.60;10.60;;;;;30.70;34.17;99292.28;5051387;28;8838;-64
2022/05/11 10:56:18;;;;;;;;;10.80;10.40;;;;;30.80;34.30;99291.22;5050758;28;9610;-64
2022/05/11 10:58:45;;;;;;;;;12.00;10.60;;;;;30.96;34.00;99292.13;5052739;28;8850;-65
2022/05/11 11:01:13;;;;;;;;;9.60;9.60;;;;;31.10;33.48;99304.31;5052435;28;8992;-65
2022/05/11 11:03:41;;;;;;;;;10.00;9.40;;;;;30.97;33.13;99299.28;5052279;28;8842;-64
2022/05/11 11:09:09;;;;;;;;;10.60;10.00;;;;;31.16;32.87;99293.06;4991091;28;8850;-64
2022/05/11 11:11:36;;;;;;;;;9.20;9.00;;;;;31.15;32.37;99288.63;4990069;28;8884;-64
2022/05/11 11:14:04;;;;;;;;;9.80;9.00;;;;;31.27;32.48;99282.91;5016755;28;8866;-65
2022/05/11 11:16:52;;;;;;;;;8.40;8.40;;;;;31.44;31.67;99280.72;5048296;28;8851;-64
2022/05/11 11:19:20;;;;;;;;;7.00;7.00;;;;;31.68;31.49;99276.34;5052780;28;8939;-64
2022/05/11 11:21:48;;;;;;;;;9.20;9.20;;;;;31.99;31.48;99278.03;5053761;28;8951;-64
2022/05/11 11:24:23;;;;;;;;;7.20;7.20;;;;;32.24;31.18;99267.03;5053010;28;8842;-65
2022/05/11 11:26:53;;;;;;;;;8.40;7.20;;;;;32.49;30.95;99272.50;5052648;28;8854;-65
2022/05/11 11:29:20;;;;;;;;;9.00;9.00;;;;;32.62;31.25;99269.16;5052294;28;8842;-64
2022/05/11 11:31:48;;;;;;;;;8.60;8.20;;;;;32.72;30.44;99244.28;5052751;28;8834;-64
2022/05/11 11:34:16;;;;;;;;;8.80;8.00;;;;;33.01;30.12;99265.41;5053206;28;8927;-64
2022/05/11 11:36:44;;;;;;;;;9.40;9.20;;;;;33.49;30.22;99252.75;5052483;28;8822;-64
2022/05/11 11:39:13;;;;;;;;;7.00;7.00;;;;;33.56;30.17;99258.78;5053165;28;8834;-64
2022/05/11 11:41:41;;;;;;;;;8.00;8.00;;;;;33.74;29.58;99258.94;5054209;28;9500;-64
2022/05/11 11:44:09;;;;;;;;;9.40;8.80;;;;;33.95;29.80;99248.53;5053607;28;8838;-64
2022/05/11 11:46:38;;;;;;;;;9.00;8.40;;;;;34.07;28.83;99251.75;5051315;28;8858;-65
2022/05/11 11:49:07;;;;;;;;;9.20;9.20;;;;;34.04;29.10;99244.84;5032843;28;8844;-65
2022/05/11 11:51:35;;;;;;;;;8.20;8.00;;;;;34.14;28.98;99244.75;5032395;28;8953;-64
2022/05/11 11:54:03;;;;;;;;;11.20;10.60;;;;;34.27;29.50;99237.78;5032129;28;8904;-65
2022/05/11 11:56:31;;;;;;;;;10.00;9.20;;;;;34.38;29.25;99242.91;5031998;28;9872;-65
2022/05/11 11:58:58;;;;;;;;;9.80;9.40;;;;;34.42;29.57;99248.66;5031226;28;8844;-64
2022/05/11 12:01:26;;;;;;;;;10.40;9.60;;;;;34.01;29.83;99250.16;5032011;28;8852;-65
2022/05/11 12:03:54;;;;;;;;;8.80;8.00;;;;;33.92;29.48;99238.06;5032650;28;9505;-65
2022/05/11 12:17:23;;;;;;;;;8.60;8.00;;;;;34.67;28.98;99226.22;5032479;28;8852;-65
2022/05/11 12:19:51;;;;;;;;;9.00;9.00;;;;;34.93;28.12;99227.56;5031947;28;8836;-68
2022/05/11 12:22:22;;;;;;;;;12.40;10.00;;;;;35.26;28.25;99221.06;5032107;28;8861;-64
2022/05/11 12:24:50;;;;;;;;;9.00;9.00;;;;;35.52;28.43;99216.75;5031873;28;8849;-65
2022/05/11 12:27:17;;;;;;;;;10.20;9.20;;;;;35.44;27.65;99223.00;5034829;28;8849;-65
2022/05/11 12:29:59;;;;;;;;;11.00;10.60;;;;;35.26;27.97;99226.59;5035288;28;9038;-64
2022/05/11 12:32:27;;;;;;;;;11.20;10.80;;;;;35.11;28.71;99221.25;5035399;28;9624;-64